sensor_id;sensor_type;location;lat;lon;timestamp;pressure;altitude;pressure_sealevel;temperature;humidity
72857;BME280;62742;52.136;4.500;2023-01-08T00:00:45;100279.31;;;9.03;81.01
72857;BME280;62742;52.136;4.500;2023-01-08T00:03:12;100272.25;;;9.05;81.21
72857;BME280;62742;52.136;4.500;2023-01-08T00:05:38;100270.41;;;9.10;80.81
72857;BME280;62742;52.136;4.500;2023-01-08T00:08:05;100276.69;;;9.02;81.15
72857;BME280;62742;52.136;4.500;2023-01-08T00:10:34;100276.72;;;9.00;81.47
72857;BME280;62742;52.136;4.500;2023-01-08T00:13:00;100273.47;;;8.87;82.25
72857;BME280;62742;52.136;4.500;2023-01-08T00:15:27;100270.06;;;8.84;82.40
72857;BME280;62742;52.136;4.500;2023-01-08T00:17:55;100270.41;;;9.10;81.23
72857;BME280;62742;52.136;4.500;2023-01-08T00:20:22;100266.59;;;8.83;82.62
72857;BME280;62742;52.136;4.500;2023-01-08T00:22:49;100262.03;;;8.93;82.15
72857;BME280;62742;52.136;4.500;2023-01-08T00:25:16;100257.88;;;8.79;82.49
72857;BME280;62742;52.136;4.500;2023-01-08T00:27:44;100258.88;;;8.74;82.61
72857;BME280;62742;52.136;4.500;2023-01-08T00:30:11;100250.91;;;8.80;82.54
72857;BME280;62742;52.136;4.500;2023-01-08T00:32:38;100255.22;;;8.83;82.25
72857;BME280;62742;52.136;4.500;2023-01-08T00:35:04;100249.50;;;8.59;83.32
72857;BME280;62742;52.136;4.500;2023-01-08T00:37:31;100245.84;;;8.69;83.59
72857;BME280;62742;52.136;4.500;2023-01-08T00:39:57;100236.09;;;8.77;82.74
72857;BME280;62742;52.136;4.500;2023-01-08T00:42:23;100236.22;;;8.73;82.84
72857;BME280;62742;52.136;4.500;2023-01-08T00:44:50;100236.81;;;8.87;82.11
72857;BME280;62742;52.136;4.500;2023-01-08T00:47:16;100234.75;;;9.03;81.52
72857;BME280;62742;52.136;4.500;2023-01-08T00:49:42;100230.81;;;8.80;82.75
72857;BME280;62742;52.136;4.500;2023-01-08T00:52:08;100224.94;;;8.68;83.07
72857;BME280;62742;52.136;4.500;2023-01-08T00:54:34;100224.38;;;8.49;84.37
72857;BME280;62742;52.136;4.500;2023-01-08T00:57:01;100228.53;;;8.60;83.72
72857;BME280;62742;52.136;4.500;2023-01-08T00:59:27;100225.03;;;8.63;84.07
72857;BME280;62742;52.136;4.500;2023-01-08T01:01:53;100222.28;;;8.69;83.19
72857;BME280;62742;52.136;4.500;2023-01-08T01:04:19;100214.69;;;8.54;84.06
72857;BME280;62742;52.136;4.500;2023-01-08T01:06:46;100220.94;;;8.47;84.86
72857;BME280;62742;52.136;4.500;2023-01-08T01:09:12;100220.84;;;8.51;84.34
72857;BME280;62742;52.136;4.500;2023-01-08T01:11:38;100218.34;;;8.42;84.67
72857;BME280;62742;52.136;4.500;2023-01-08T01:14:04;100217.44;;;8.48;84.64
72857;BME280;62742;52.136;4.500;2023-01-08T01:16:30;100219.22;;;8.46;84.88
72857;BME280;62742;52.136;4.500;2023-01-08T01:18:57;100212.25;;;8.45;85.34
72857;BME280;62742;52.136;4.500;2023-01-08T01:21:24;100213.78;;;8.56;84.46
72857;BME280;62742;52.136;4.500;2023-01-08T01:23:54;100211.78;;;8.69;83.35
72857;BME280;62742;52.136;4.500;2023-01-08T01:26:23;100213.75;;;8.58;83.86
72857;BME280;62742;52.136;4.500;2023-01-08T01:28:51;100210.13;;;8.65;83.88
72857;BME280;62742;52.136;4.500;2023-01-08T01:31:20;100205.75;;;8.66;83.76
72857;BME280;62742;52.136;4.500;2023-01-08T01:33:48;100216.44;;;8.55;84.40
72857;BME280;62742;52.136;4.500;2023-01-08T01:36:16;100221.31;;;8.75;84.10
72857;BME280;62742;52.136;4.500;2023-01-08T01:38:44;100218.66;;;8.78;84.25
72857;BME280;62742;52.136;4.500;2023-01-08T01:41:31;100217.81;;;8.74;84.31
72857;BME280;62742;52.136;4.500;2023-01-08T01:47:03;100213.81;;;8.55;85.52
72857;BME280;62742;52.136;4.500;2023-01-08T01:49:35;100211.31;;;8.47;85.59
72857;BME280;62742;52.136;4.500;2023-01-08T01:52:04;100211.88;;;8.66;84.21
72857;BME280;62742;52.136;4.500;2023-01-08T01:54:33;100207.88;;;8.43;85.12
72857;BME280;62742;52.136;4.500;2023-01-08T01:57:01;100212.44;;;8.32;85.79
72857;BME280;62742;52.136;4.500;2023-01-08T01:59:29;100206.25;;;8.36;85.14
72857;BME280;62742;52.136;4.500;2023-01-08T02:01:55;100212.06;;;8.54;84.31
72857;BME280;62742;52.136;4.500;2023-01-08T02:04:22;100224.50;;;8.42;84.87
72857;BME280;62742;52.136;4.500;2023-01-08T02:06:55;100225.72;;;8.20;86.31
72857;BME280;62742;52.136;4.500;2023-01-08T02:09:54;100216.97;;;8.21;87.37
72857;BME280;62742;52.136;4.500;2023-01-08T02:12:28;100216.88;;;8.27;86.85
72857;BME280;62742;52.136;4.500;2023-01-08T02:17:56;100204.09;;;8.07;87.28
72857;BME280;62742;52.136;4.500;2023-01-08T02:23:10;100197.84;;;8.17;86.89
72857;BME280;62742;52.136;4.500;2023-01-08T02:28:18;100204.00;;;8.15;87.58
72857;BME280;62742;52.136;4.500;2023-01-08T02:30:45;100196.97;;;8.17;87.58
72857;BME280;62742;52.136;4.500;2023-01-08T02:33:12;100195.75;;;8.36;86.79
72857;BME280;62742;52.136;4.500;2023-01-08T02:35:41;100201.78;;;8.41;86.58
72857;BME280;62742;52.136;4.500;2023-01-08T02:38:13;100207.16;;;8.35;86.77
72857;BME280;62742;52.136;4.500;2023-01-08T02:40:53;100203.66;;;8.33;86.69
72857;BME280;62742;52.136;4.500;2023-01-08T02:46:23;100184.22;;;8.50;85.91
72857;BME280;62742;52.136;4.500;2023-01-08T02:49:00;100190.38;;;8.47;85.63
72857;BME280;62742;52.136;4.500;2023-01-08T02:51:34;100209.09;;;8.21;87.12
72857;BME280;62742;52.136;4.500;2023-01-08T02:54:06;100202.09;;;8.23;87.08
72857;BME280;62742;52.136;4.500;2023-01-08T02:56:40;100203.84;;;8.24;86.27
72857;BME280;62742;52.136;4.500;2023-01-08T02:59:10;100202.16;;;8.20;86.70
72857;BME280;62742;52.136;4.500;2023-01-08T03:01:39;100196.28;;;8.05;87.00
72857;BME280;62742;52.136;4.500;2023-01-08T03:04:11;100205.69;;;8.17;86.36
72857;BME280;62742;52.136;4.500;2023-01-08T03:06:42;100203.09;;;8.16;86.40
72857;BME280;62742;52.136;4.500;2023-01-08T03:09:09;100200.44;;;8.19;85.87
72857;BME280;62742;52.136;4.500;2023-01-08T03:11:58;100199.63;;;8.15;84.59
72857;BME280;62742;52.136;4.500;2023-01-08T03:14:31;100194.44;;;8.11;84.76
72857;BME280;62742;52.136;4.500;2023-01-08T03:17:07;100189.72;;;8.33;82.40
72857;BME280;62742;52.136;4.500;2023-01-08T03:19:44;100193.28;;;8.30;82.49
72857;BME280;62742;52.136;4.500;2023-01-08T03:22:15;100188.25;;;8.16;82.89
72857;BME280;62742;52.136;4.500;2023-01-08T03:24:45;100187.09;;;8.33;82.24
72857;BME280;62742;52.136;4.500;2023-01-08T03:27:17;100186.94;;;8.42;81.43
72857;BME280;62742;52.136;4.500;2023-01-08T03:29:48;100193.16;;;8.36;82.00
72857;BME280;62742;52.136;4.500;2023-01-08T03:32:16;100184.47;;;8.34;81.65
72857;BME280;62742;52.136;4.500;2023-01-08T03:34:45;100175.72;;;8.35;81.54
72857;BME280;62742;52.136;4.500;2023-01-08T03:37:14;100179.31;;;8.28;81.62
72857;BME280;62742;52.136;4.500;2023-01-08T03:39:46;100167.16;;;8.27;82.01
72857;BME280;62742;52.136;4.500;2023-01-08T03:42:25;100167.22;;;8.21;81.22
72857;BME280;62742;52.136;4.500;2023-01-08T03:44:56;100165.44;;;8.24;80.99
72857;BME280;62742;52.136;4.500;2023-01-08T03:47:22;100163.03;;;8.12;81.95
72857;BME280;62742;52.136;4.500;2023-01-08T03:49:50;100175.53;;;7.93;82.11
72857;BME280;62742;52.136;4.500;2023-01-08T03:52:25;100179.00;;;7.94;82.02
72857;BME280;62742;52.136;4.500;2023-01-08T03:54:54;100179.97;;;7.90;82.20
72857;BME280;62742;52.136;4.500;2023-01-08T03:57:20;100184.91;;;8.08;80.68
72857;BME280;62742;52.136;4.500;2023-01-08T03:59:47;100183.38;;;7.93;81.19
72857;BME280;62742;52.136;4.500;2023-01-08T04:02:13;100184.88;;;8.10;80.69
72857;BME280;62742;52.136;4.500;2023-01-08T04:04:40;100175.31;;;8.07;80.24
72857;BME280;62742;52.136;4.500;2023-01-08T04:07:06;100175.53;;;7.93;80.69
72857;BME280;62742;52.136;4.500;2023-01-08T04:09:35;100170.88;;;7.55;82.46
72857;BME280;62742;52.136;4.500;2023-01-08T04:12:02;100171.00;;;7.45;82.47
72857;BME280;62742;52.136;4.500;2023-01-08T04:14:28;100177.34;;;7.27;83.61
72857;BME280;62742;52.136;4.500;2023-01-08T04:16:54;100182.63;;;7.24;83.94
72857;BME280;62742;52.136;4.500;2023-01-08T04:19:20;100176.28;;;7.42;83.25
72857;BME280;62742;52.136;4.500;2023-01-08T04:21:50;100173.69;;;7.41;82.57
72857;BME280;62742;52.136;4.500;2023-01-08T04:24:17;100177.31;;;7.30;82.86
72857;BME280;62742;52.136;4.500;2023-01-08T04:26:44;100169.38;;;7.38;82.99
72857;BME280;62742;52.136;4.500;2023-01-08T04:29:11;100167.59;;;7.40;82.31
72857;BME280;62742;52.136;4.500;2023-01-08T04:31:37;100165.13;;;7.29;83.43
72857;BME280;62742;52.136;4.500;2023-01-08T04:34:04;100163.25;;;7.38;82.84
72857;BME280;62742;52.136;4.500;2023-01-08T04:36:30;100166.63;;;7.47;82.46
72857;BME280;62742;52.136;4.500;2023-01-08T04:38:57;100161.88;;;7.76;81.88
72857;BME280;62742;52.136;4.500;2023-01-08T04:41:23;100147.94;;;7.74;81.37
72857;BME280;62742;52.136;4.500;2023-01-08T04:43:49;100152.38;;;7.68;82.52
72857;BME280;62742;52.136;4.500;2023-01-08T04:46:15;100157.69;;;7.64;82.01
72857;BME280;62742;52.136;4.500;2023-01-08T04:48:41;100153.50;;;7.52;83.07
72857;BME280;62742;52.136;4.500;2023-01-08T04:51:07;100156.06;;;7.57;83.17
72857;BME280;62742;52.136;4.500;2023-01-08T04:53:34;100156.78;;;7.63;83.13
72857;BME280;62742;52.136;4.500;2023-01-08T04:56:03;100152.50;;;7.61;82.66
72857;BME280;62742;52.136;4.500;2023-01-08T04:58:30;100149.03;;;7.60;82.40
72857;BME280;62742;52.136;4.500;2023-01-08T05:00:57;100147.41;;;7.52;82.75
72857;BME280;62742;52.136;4.500;2023-01-08T05:03:24;100151.09;;;7.37;83.70
72857;BME280;62742;52.136;4.500;2023-01-08T05:05:50;100150.38;;;7.24;84.29
72857;BME280;62742;52.136;4.500;2023-01-08T05:08:16;100152.97;;;7.25;84.07
72857;BME280;62742;52.136;4.500;2023-01-08T05:10:42;100156.56;;;7.18;84.49
72857;BME280;62742;52.136;4.500;2023-01-08T05:13:09;100154.78;;;7.20;84.21
72857;BME280;62742;52.136;4.500;2023-01-08T05:15:35;100153.78;;;7.30;84.22
72857;BME280;62742;52.136;4.500;2023-01-08T05:18:02;100148.53;;;7.34;83.99
72857;BME280;62742;52.136;4.500;2023-01-08T05:20:32;100147.78;;;7.22;84.48
72857;BME280;62742;52.136;4.500;2023-01-08T05:23:00;100145.13;;;7.27;84.45
72857;BME280;62742;52.136;4.500;2023-01-08T05:25:27;100135.59;;;7.23;84.62
72857;BME280;62742;52.136;4.500;2023-01-08T05:27:53;100145.16;;;7.24;84.95
72857;BME280;62742;52.136;4.500;2023-01-08T05:30:19;100145.09;;;7.28;83.95
72857;BME280;62742;52.136;4.500;2023-01-08T05:32:45;100142.66;;;7.18;84.63
72857;BME280;62742;52.136;4.500;2023-01-08T05:35:11;100139.78;;;7.36;84.09
72857;BME280;62742;52.136;4.500;2023-01-08T05:37:38;100134.66;;;7.27;83.87
72857;BME280;62742;52.136;4.500;2023-01-08T05:40:05;100140.06;;;7.15;84.59
72857;BME280;62742;52.136;4.500;2023-01-08T05:42:35;100140.91;;;7.15;84.37
72857;BME280;62742;52.136;4.500;2023-01-08T05:45:05;100146.25;;;7.07;84.99
72857;BME280;62742;52.136;4.500;2023-01-08T05:47:33;100149.84;;;6.99;85.27
72857;BME280;62742;52.136;4.500;2023-01-08T05:50:00;100148.34;;;6.78;86.20
72857;BME280;62742;52.136;4.500;2023-01-08T05:52:26;100155.25;;;6.83;86.24
72857;BME280;62742;52.136;4.500;2023-01-08T05:54:53;100151.34;;;7.18;84.72
72857;BME280;62742;52.136;4.500;2023-01-08T05:57:19;100146.91;;;7.25;83.68
72857;BME280;62742;52.136;4.500;2023-01-08T05:59:45;100151.50;;;7.06;84.71
72857;BME280;62742;52.136;4.500;2023-01-08T06:02:11;100151.56;;;7.00;84.72
72857;BME280;62742;52.136;4.500;2023-01-08T06:04:37;100152.34;;;7.08;83.97
72857;BME280;62742;52.136;4.500;2023-01-08T06:07:04;100142.63;;;7.19;83.63
72857;BME280;62742;52.136;4.500;2023-01-08T06:09:30;100155.69;;;7.19;83.31
72857;BME280;62742;52.136;4.500;2023-01-08T06:11:56;100158.53;;;7.01;83.92
72857;BME280;62742;52.136;4.500;2023-01-08T06:14:23;100152.53;;;6.92;84.00
72857;BME280;62742;52.136;4.500;2023-01-08T06:16:49;100155.19;;;6.86;84.52
72857;BME280;62742;52.136;4.500;2023-01-08T06:19:15;100154.41;;;6.80;85.28
72857;BME280;62742;52.136;4.500;2023-01-08T06:21:43;100150.94;;;6.79;84.97
72857;BME280;62742;52.136;4.500;2023-01-08T06:24:10;100157.13;;;6.72;85.09
72857;BME280;62742;52.136;4.500;2023-01-08T06:26:36;100145.00;;;6.68;85.83
72857;BME280;62742;52.136;4.500;2023-01-08T06:29:02;100143.94;;;6.81;85.33
72857;BME280;62742;52.136;4.500;2023-01-08T06:31:28;100130.81;;;6.87;84.58
72857;BME280;62742;52.136;4.500;2023-01-08T06:33:55;100135.22;;;6.84;84.72
72857;BME280;62742;52.136;4.500;2023-01-08T06:36:21;100139.28;;;7.08;83.96
72857;BME280;62742;52.136;4.500;2023-01-08T06:38:47;100140.25;;;7.01;83.63
72857;BME280;62742;52.136;4.500;2023-01-08T06:41:13;100134.31;;;6.86;84.43
72857;BME280;62742;52.136;4.500;2023-01-08T06:43:39;100129.06;;;6.89;84.38
72857;BME280;62742;52.136;4.500;2023-01-08T06:46:06;100128.00;;;7.04;84.29
72857;BME280;62742;52.136;4.500;2023-01-08T06:48:34;100132.44;;;6.98;84.46
72857;BME280;62742;52.136;4.500;2023-01-08T06:51:00;100126.28;;;7.03;84.43
72857;BME280;62742;52.136;4.500;2023-01-08T06:53:28;100126.22;;;7.06;84.05
72857;BME280;62742;52.136;4.500;2023-01-08T06:55:55;100126.47;;;6.86;84.95
72857;BME280;62742;52.136;4.500;2023-01-08T06:58:22;100132.63;;;6.82;85.06
72857;BME280;62742;52.136;4.500;2023-01-08T07:00:49;100136.06;;;6.86;85.28
72857;BME280;62742;52.136;4.500;2023-01-08T07:03:15;100140.53;;;6.74;86.01
72857;BME280;62742;52.136;4.500;2023-01-08T07:05:41;100144.03;;;6.73;85.78
72857;BME280;62742;52.136;4.500;2023-01-08T07:08:14;100142.31;;;6.71;85.89
72857;BME280;62742;52.136;4.500;2023-01-08T07:10:42;100143.22;;;6.70;85.69
72857;BME280;62742;52.136;4.500;2023-01-08T07:13:09;100142.47;;;6.59;86.56
72857;BME280;62742;52.136;4.500;2023-01-08T07:15:40;100150.09;;;6.77;85.38
72857;BME280;62742;52.136;4.500;2023-01-08T07:18:07;100150.94;;;6.79;85.42
72857;BME280;62742;52.136;4.500;2023-01-08T07:20:35;100140.66;;;6.65;85.56
72857;BME280;62742;52.136;4.500;2023-01-08T07:23:02;100143.25;;;6.67;85.45
72857;BME280;62742;52.136;4.500;2023-01-08T07:25:31;100143.31;;;6.61;85.69
72857;BME280;62742;52.136;4.500;2023-01-08T07:27:58;100141.66;;;6.53;85.07
72857;BME280;62742;52.136;4.500;2023-01-08T07:30:24;100132.06;;;6.52;85.21
72857;BME280;62742;52.136;4.500;2023-01-08T07:32:51;100121.72;;;6.48;85.63
72857;BME280;62742;52.136;4.500;2023-01-08T07:35:17;100124.34;;;6.45;85.13
72857;BME280;62742;52.136;4.500;2023-01-08T07:37:44;100122.75;;;6.30;86.17
72857;BME280;62742;52.136;4.500;2023-01-08T07:40:10;100119.38;;;6.20;86.71
72857;BME280;62742;52.136;4.500;2023-01-08T07:42:37;100118.38;;;6.32;86.57
72857;BME280;62742;52.136;4.500;2023-01-08T07:45:04;100120.09;;;6.34;86.76
72857;BME280;62742;52.136;4.500;2023-01-08T07:47:30;100120.91;;;6.41;85.90
72857;BME280;62742;52.136;4.500;2023-01-08T07:49:56;100123.53;;;6.38;85.50
72857;BME280;62742;52.136;4.500;2023-01-08T07:52:23;100120.09;;;6.36;85.96
72857;BME280;62742;52.136;4.500;2023-01-08T07:54:49;100112.25;;;6.36;86.01
72857;BME280;62742;52.136;4.500;2023-01-08T07:57:15;100117.56;;;6.27;86.25
72857;BME280;62742;52.136;4.500;2023-01-08T07:59:42;100112.34;;;6.27;85.82
72857;BME280;62742;52.136;4.500;2023-01-08T08:02:11;100109.78;;;6.24;86.55
72857;BME280;62742;52.136;4.500;2023-01-08T08:04:37;100106.06;;;6.48;85.58
72857;BME280;62742;52.136;4.500;2023-01-08T08:07:03;100109.50;;;6.48;86.04
72857;BME280;62742;52.136;4.500;2023-01-08T08:09:30;100105.28;;;6.38;86.29
72857;BME280;62742;52.136;4.500;2023-01-08T08:11:56;100105.06;;;6.57;84.88
72857;BME280;62742;52.136;4.500;2023-01-08T08:14:23;100102.53;;;6.50;84.99
72857;BME280;62742;52.136;4.500;2023-01-08T08:16:49;100099.09;;;6.45;85.63
72857;BME280;62742;52.136;4.500;2023-01-08T08:19:15;100098.16;;;6.52;85.40
72857;BME280;62742;52.136;4.500;2023-01-08T08:21:41;100107.09;;;6.30;86.32
72857;BME280;62742;52.136;4.500;2023-01-08T08:24:08;100115.69;;;6.41;86.34
72857;BME280;62742;52.136;4.500;2023-01-08T08:26:34;100112.06;;;6.54;85.92
72857;BME280;62742;52.136;4.500;2023-01-08T08:29:00;100104.16;;;6.61;84.83
72857;BME280;62742;52.136;4.500;2023-01-08T08:31:26;100100.72;;;6.55;85.34
72857;BME280;62742;52.136;4.500;2023-01-08T08:33:52;100096.41;;;6.54;85.53
72857;BME280;62742;52.136;4.500;2023-01-08T08:36:19;100099.84;;;6.57;85.48
72857;BME280;62742;52.136;4.500;2023-01-08T08:38:45;100089.44;;;6.55;85.51
72857;BME280;62742;52.136;4.500;2023-01-08T08:41:11;100083.28;;;6.59;85.36
72857;BME280;62742;52.136;4.500;2023-01-08T08:43:37;100083.38;;;6.51;86.13
72857;BME280;62742;52.136;4.500;2023-01-08T08:46:03;100087.75;;;6.49;86.18
72857;BME280;62742;52.136;4.500;2023-01-08T08:48:30;100085.94;;;6.58;85.82
72857;BME280;62742;52.136;4.500;2023-01-08T08:50:56;100087.56;;;6.66;85.32
72857;BME280;62742;52.136;4.500;2023-01-08T08:53:22;100091.19;;;6.54;86.79
72857;BME280;62742;52.136;4.500;2023-01-08T08:55:48;100089.41;;;6.57;86.40
72857;BME280;62742;52.136;4.500;2023-01-08T08:58:15;100077.69;;;6.90;85.05
72857;BME280;62742;52.136;4.500;2023-01-08T09:00:42;100070.78;;;6.86;84.60
72857;BME280;62742;52.136;4.500;2023-01-08T09:03:12;100074.38;;;6.77;85.83
72857;BME280;62742;52.136;4.500;2023-01-08T09:05:42;100064.50;;;7.01;84.44
72857;BME280;62742;52.136;4.500;2023-01-08T09:08:09;100062.16;;;6.79;85.15
72857;BME280;62742;52.136;4.500;2023-01-08T09:10:36;100055.88;;;6.96;84.62
72857;BME280;62742;52.136;4.500;2023-01-08T09:13:03;100057.53;;;7.01;84.96
72857;BME280;62742;52.136;4.500;2023-01-08T09:15:29;100052.34;;;6.98;85.29
72857;BME280;62742;52.136;4.500;2023-01-08T09:17:55;100047.88;;;7.06;84.86
72857;BME280;62742;52.136;4.500;2023-01-08T09:20:23;100050.47;;;7.08;84.81
72857;BME280;62742;52.136;4.500;2023-01-08T09:22:50;100043.47;;;7.08;85.07
72857;BME280;62742;52.136;4.500;2023-01-08T09:25:16;100044.41;;;7.06;85.39
72857;BME280;62742;52.136;4.500;2023-01-08T09:27:43;100048.72;;;7.07;85.23
72857;BME280;62742;52.136;4.500;2023-01-08T09:30:10;100047.63;;;7.23;84.77
72857;BME280;62742;52.136;4.500;2023-01-08T09:32:37;100051.78;;;7.37;84.20
72857;BME280;62742;52.136;4.500;2023-01-08T09:35:03;100051.84;;;7.32;84.75
72857;BME280;62742;52.136;4.500;2023-01-08T09:37:30;100043.00;;;7.41;83.97
72857;BME280;62742;52.136;4.500;2023-01-08T09:39:56;100050.88;;;7.38;83.93
72857;BME280;62742;52.136;4.500;2023-01-08T09:42:24;100045.63;;;7.39;84.59
72857;BME280;62742;52.136;4.500;2023-01-08T09:44:53;100046.19;;;7.60;83.72
72857;BME280;62742;52.136;4.500;2023-01-08T09:47:30;100040.84;;;7.67;83.46
72857;BME280;62742;52.136;4.500;2023-01-08T09:50:03;100047.66;;;7.76;83.15
72857;BME280;62742;52.136;4.500;2023-01-08T09:52:35;100048.19;;;7.95;82.69
72857;BME280;62742;52.136;4.500;2023-01-08T09:55:05;100050.94;;;7.89;83.43
72857;BME280;62742;52.136;4.500;2023-01-08T09:57:37;100050.94;;;7.89;83.47
72857;BME280;62742;52.136;4.500;2023-01-08T10:00:03;100050.94;;;7.89;83.79
72857;BME280;62742;52.136;4.500;2023-01-08T10:02:35;100042.56;;;8.18;82.42
72857;BME280;62742;52.136;4.500;2023-01-08T10:05:09;100044.13;;;8.27;81.56
72857;BME280;62742;52.136;4.500;2023-01-08T10:07:38;100040.25;;;8.48;80.67
72857;BME280;62742;52.136;4.500;2023-01-08T10:10:05;100044.63;;;8.48;81.18
72857;BME280;62742;52.136;4.500;2023-01-08T10:12:40;100034.22;;;8.45;81.65
72857;BME280;62742;52.136;4.500;2023-01-08T10:15:07;100037.56;;;8.53;81.49
72857;BME280;62742;52.136;4.500;2023-01-08T10:17:50;100030.56;;;8.53;80.92
72857;BME280;62742;52.136;4.500;2023-01-08T10:20:28;100032.28;;;8.54;81.17
72857;BME280;62742;52.136;4.500;2023-01-08T10:22:55;100028.66;;;8.60;81.74
72857;BME280;62742;52.136;4.500;2023-01-08T10:25:48;100023.09;;;8.75;81.09
72857;BME280;62742;52.136;4.500;2023-01-08T10:28:23;100024.66;;;8.84;80.86
72857;BME280;62742;52.136;4.500;2023-01-08T10:30:52;100022.44;;;9.06;79.52
72857;BME280;62742;52.136;4.500;2023-01-08T10:33:20;100021.34;;;9.15;79.50
72857;BME280;62742;52.136;4.500;2023-01-08T10:35:51;100017.16;;;9.08;80.25
72857;BME280;62742;52.136;4.500;2023-01-08T10:38:39;100015.38;;;9.08;79.94
72857;BME280;62742;52.136;4.500;2023-01-08T10:41:12;100004.53;;;9.24;79.62
72857;BME280;62742;52.136;4.500;2023-01-08T10:46:24;99999.84;;;9.38;78.43
72857;BME280;62742;52.136;4.500;2023-01-08T10:48:56;99990.94;;;9.45;79.11
72857;BME280;62742;52.136;4.500;2023-01-08T10:51:26;99989.81;;;9.54;76.97
72857;BME280;62742;52.136;4.500;2023-01-08T10:53:55;99972.81;;;9.70;76.55
72857;BME280;62742;52.136;4.500;2023-01-08T10:56:25;99985.88;;;9.72;77.03
72857;BME280;62742;52.136;4.500;2023-01-08T10:58:56;99980.94;;;9.60;76.34
72857;BME280;62742;52.136;4.500;2023-01-08T11:01:24;99986.03;;;9.66;76.50
72857;BME280;62742;52.136;4.500;2023-01-08T11:03:52;99987.97;;;9.58;77.31
72857;BME280;62742;52.136;4.500;2023-01-08T11:06:22;99983.16;;;9.75;77.08
72857;BME280;62742;52.136;4.500;2023-01-08T11:08:53;99982.38;;;9.71;76.31
72857;BME280;62742;52.136;4.500;2023-01-08T11:11:22;99976.53;;;9.62;76.63
72857;BME280;62742;52.136;4.500;2023-01-08T11:14:05;99961.28;;;9.76;76.06
72857;BME280;62742;52.136;4.500;2023-01-08T11:16:44;99974.44;;;9.74;75.16
72857;BME280;62742;52.136;4.500;2023-01-08T11:24:34;99957.09;;;10.02;74.85
72857;BME280;62742;52.136;4.500;2023-01-08T11:27:04;99951.50;;;10.14;73.39
72857;BME280;62742;52.136;4.500;2023-01-08T11:30:04;99937.56;;;10.12;73.70
72857;BME280;62742;52.136;4.500;2023-01-08T11:32:56;99935.50;;;10.23;73.92
72857;BME280;62742;52.136;4.500;2023-01-08T11:35:38;99937.97;;;10.28;73.39
72857;BME280;62742;52.136;4.500;2023-01-08T11:38:11;99942.19;;;10.35;73.25
72857;BME280;62742;52.136;4.500;2023-01-08T11:43:24;99943.31;;;10.56;72.55
72857;BME280;62742;52.136;4.500;2023-01-08T11:51:28;99932.63;;;10.62;71.07
72857;BME280;62742;52.136;4.500;2023-01-08T11:54:09;99934.31;;;10.63;71.01
72857;BME280;62742;52.136;4.500;2023-01-08T12:02:46;99909.56;;;10.71;71.17
72857;BME280;62742;52.136;4.500;2023-01-08T12:35:14;99893.09;;;10.94;70.22
72857;BME280;62742;52.136;4.500;2023-01-08T12:37:49;99890.91;;;10.80;70.00
72857;BME280;62742;52.136;4.500;2023-01-08T12:40:25;99875.81;;;10.58;70.10
72857;BME280;62742;52.136;4.500;2023-01-08T12:42:58;99879.25;;;10.60;70.54
72857;BME280;62742;52.136;4.500;2023-01-08T12:45:29;99877.28;;;10.67;71.18
72857;BME280;62742;52.136;4.500;2023-01-08T12:48:02;99867.16;;;10.83;70.17
72857;BME280;62742;52.136;4.500;2023-01-08T12:53:23;99859.75;;;10.94;67.68
72857;BME280;62742;52.136;4.500;2023-01-08T12:58:53;99850.81;;;10.73;69.41
72857;BME280;62742;52.136;4.500;2023-01-08T13:01:37;99851.53;;;10.78;71.01
72857;BME280;62742;52.136;4.500;2023-01-08T13:04:09;99853.34;;;11.03;69.18
72857;BME280;62742;52.136;4.500;2023-01-08T13:06:37;99839.19;;;11.07;68.38
72857;BME280;62742;52.136;4.500;2023-01-08T13:09:20;99836.72;;;11.02;68.46
72857;BME280;62742;52.136;4.500;2023-01-08T13:11:50;99843.56;;;11.07;68.84
72857;BME280;62742;52.136;4.500;2023-01-08T13:14:18;99838.03;;;11.16;68.28
72857;BME280;62742;52.136;4.500;2023-01-08T13:16:46;99838.53;;;11.00;68.57
72857;BME280;62742;52.136;4.500;2023-01-08T13:19:29;99832.31;;;11.03;68.21
72857;BME280;62742;52.136;4.500;2023-01-08T13:22:02;99830.06;;;10.92;68.95
72857;BME280;62742;52.136;4.500;2023-01-08T13:24:35;99819.91;;;10.81;68.80
72857;BME280;62742;52.136;4.500;2023-01-08T13:29:43;99821.97;;;10.98;68.94
72857;BME280;62742;52.136;4.500;2023-01-08T13:37:33;99800.81;;;11.01;68.54
72857;BME280;62742;52.136;4.500;2023-01-08T13:39:59;99800.75;;;10.78;70.16
72857;BME280;62742;52.136;4.500;2023-01-08T13:42:25;99800.25;;;10.93;69.71
72857;BME280;62742;52.136;4.500;2023-01-08T13:44:56;99798.84;;;11.08;69.01
72857;BME280;62742;52.136;4.500;2023-01-08T13:47:29;99799.97;;;11.01;69.63
72857;BME280;62742;52.136;4.500;2023-01-08T13:49:58;99799.13;;;11.00;68.55
72857;BME280;62742;52.136;4.500;2023-01-08T13:52:42;99795.59;;;10.75;69.49
72857;BME280;62742;52.136;4.500;2023-01-08T13:55:15;99791.25;;;10.74;69.26
72857;BME280;62742;52.136;4.500;2023-01-08T13:57:51;99795.09;;;10.63;69.61
72857;BME280;62742;52.136;4.500;2023-01-08T14:00:21;99793.66;;;10.53;70.36
72857;BME280;62742;52.136;4.500;2023-01-08T14:02:49;99776.44;;;10.44;70.51
72857;BME280;62742;52.136;4.500;2023-01-08T14:05:26;99772.13;;;10.42;71.04
72857;BME280;62742;52.136;4.500;2023-01-08T14:07:59;99772.34;;;10.36;70.45
72857;BME280;62742;52.136;4.500;2023-01-08T14:10:28;99763.88;;;10.26;70.27
72857;BME280;62742;52.136;4.500;2023-01-08T14:13:05;99760.22;;;10.32;70.38
72857;BME280;62742;52.136;4.500;2023-01-08T14:15:33;99752.06;;;10.11;71.18
72857;BME280;62742;52.136;4.500;2023-01-08T14:18:01;99755.91;;;10.01;72.13
72857;BME280;62742;52.136;4.500;2023-01-08T14:20:33;99750.94;;;9.91;72.20
72857;BME280;62742;52.136;4.500;2023-01-08T14:23:01;99737.81;;;9.91;71.68
72857;BME280;62742;52.136;4.500;2023-01-08T14:25:39;99745.78;;;9.88;71.68
72857;BME280;62742;52.136;4.500;2023-01-08T14:28:06;99747.13;;;10.02;71.61
72857;BME280;62742;52.136;4.500;2023-01-08T14:30:45;99745.69;;;9.91;71.31